createdAt,value
2022-09-22T00:00:07.376Z,9.711578
2022-09-22T00:01:07.490Z,9.711513
2022-09-22T00:02:07.417Z,9.711589
2022-09-22T00:03:07.353Z,9.711617
2022-09-22T00:04:07.373Z,9.711606
2022-09-22T00:05:07.334Z,9.711469
2022-09-22T00:06:07.331Z,9.711395
2022-09-22T00:07:07.312Z,9.711393
2022-09-22T00:08:07.314Z,9.711455
2022-09-22T00:09:07.388Z,9.711533
2022-09-22T00:10:07.289Z,9.711438
2022-09-22T00:11:07.294Z,9.711493
2022-09-22T00:12:07.280Z,9.711364
2022-09-22T00:13:07.273Z,9.711456
2022-09-22T00:14:07.285Z,9.711468
2022-09-22T00:15:07.259Z,9.711631
2022-09-22T00:16:07.343Z,9.712044
2022-09-22T00:17:07.245Z,9.712267
2022-09-22T00:18:07.233Z,9.712344
2022-09-22T00:19:07.235Z,9.712416
2022-09-22T00:20:07.222Z,9.712387
2022-09-22T00:21:07.222Z,9.711994
2022-09-22T00:22:07.208Z,9.712008
2022-09-22T00:23:07.204Z,9.712083
2022-09-22T00:24:07.413Z,9.711978
2022-09-22T00:25:07.175Z,9.711865
2022-09-22T00:26:07.207Z,9.712200
2022-09-22T00:27:07.164Z,9.712260
2022-09-22T00:28:07.155Z,9.712201
2022-09-22T00:29:07.143Z,9.712306
2022-09-22T00:33:09.174Z,9.712039
2022-09-22T00:34:08.313Z,9.711733
2022-09-22T00:35:08.306Z,9.711822
2022-09-22T00:36:08.297Z,9.711906
2022-09-22T00:37:08.295Z,9.711771
2022-09-22T00:38:08.272Z,9.711660
2022-09-22T00:39:08.268Z,9.711682
2022-09-22T00:40:08.323Z,9.711699
2022-09-22T00:41:08.256Z,9.711784
2022-09-22T00:42:08.255Z,9.711735
2022-09-22T00:43:08.267Z,9.711674
2022-09-22T00:44:08.270Z,9.711464
2022-09-22T00:45:08.222Z,9.711662
2022-09-22T00:46:08.213Z,9.711719
2022-09-22T00:47:08.222Z,9.711707
2022-09-22T00:48:08.207Z,9.711701
2022-09-22T00:49:08.201Z,9.711655
2022-09-22T00:50:08.176Z,9.711632
2022-09-22T00:51:09.171Z,9.711658
2022-09-22T00:52:08.181Z,9.711652
2022-09-22T00:53:08.160Z,9.711635
2022-09-22T00:54:08.158Z,9.711651
2022-09-22T00:55:08.151Z,9.711684
2022-09-22T00:56:09.113Z,9.711655
2022-09-22T00:57:08.133Z,9.711690
2022-09-22T00:58:08.126Z,9.711669
2022-09-22T00:59:08.183Z,9.711709
2022-09-22T01:00:08.129Z,9.711685
2022-09-22T01:01:08.146Z,9.711653
2022-09-22T01:02:08.145Z,9.711667
2022-09-22T01:03:08.072Z,9.711654
2022-09-22T01:04:08.082Z,9.711668
2022-09-22T01:05:08.071Z,9.711628
2022-09-22T01:06:08.068Z,9.711635
2022-09-22T01:07:08.681Z,9.711654
2022-09-22T01:08:08.038Z,9.711654
2022-09-22T01:09:08.028Z,9.711634
2022-09-22T01:10:08.042Z,9.711606
2022-09-22T01:11:08.010Z,9.711625
2022-09-22T01:12:08.027Z,9.711634
2022-09-22T01:13:08.015Z,9.711665
2022-09-22T01:14:08.046Z,9.711605
2022-09-22T01:15:07.987Z,9.711538
2022-09-22T01:16:08.033Z,9.711572
2022-09-22T01:17:07.964Z,9.711665
2022-09-22T01:18:07.966Z,9.711597
2022-09-22T01:19:07.949Z,9.711573
2022-09-22T01:20:07.934Z,9.711593
2022-09-22T01:21:07.941Z,9.711586
2022-09-22T01:22:07.930Z,9.711622
2022-09-22T01:23:07.927Z,9.711497
2022-09-22T01:24:07.905Z,9.711552
2022-09-22T01:25:07.917Z,9.711489
2022-09-22T01:26:07.901Z,9.711475
2022-09-22T01:27:07.892Z,9.711507
2022-09-22T01:28:08.679Z,9.711493
2022-09-22T01:29:07.881Z,9.711547
2022-09-22T01:30:07.876Z,9.711556
2022-09-22T01:31:07.886Z,9.711551
2022-09-22T01:32:07.848Z,9.711521
2022-09-22T01:33:07.895Z,9.711492
2022-09-22T01:34:07.831Z,9.711593
2022-09-22T01:35:07.822Z,9.711660
2022-09-22T01:36:07.821Z,9.711749
2022-09-22T01:37:07.808Z,9.711761
2022-09-22T01:38:07.794Z,9.711671
2022-09-22T01:39:08.795Z,9.711672
2022-09-22T01:40:07.857Z,9.711512
2022-09-22T01:41:07.770Z,9.711527
2022-09-22T01:42:07.776Z,9.711493
2022-09-22T01:43:07.751Z,9.711521
2022-09-22T01:44:07.756Z,9.711481
2022-09-22T01:45:07.745Z,9.711518
2022-09-22T01:46:07.808Z,9.711516
2022-09-22T01:47:07.736Z,9.711490
2022-09-22T01:48:07.717Z,9.711546
2022-09-22T01:49:07.718Z,9.711653
2022-09-22T01:50:07.708Z,9.711568
2022-09-22T01:51:07.722Z,9.711546
2022-09-22T01:52:07.695Z,9.711642
2022-09-22T01:53:07.678Z,9.711626
2022-09-22T01:54:07.679Z,9.711545
2022-09-22T01:55:07.669Z,9.711557
2022-09-22T01:56:07.661Z,9.711594
2022-09-22T01:57:07.638Z,9.711657
2022-09-22T01:58:07.632Z,9.711611
2022-09-22T01:59:07.625Z,9.711603
2022-09-22T02:00:07.620Z,9.711601
2022-09-22T02:01:10.967Z,9.711611
2022-09-22T02:02:09.747Z,9.711773
2022-09-22T02:03:07.599Z,9.711653
2022-09-22T02:04:07.581Z,9.711718
2022-09-22T02:05:07.577Z,9.711836
2022-09-22T02:06:07.584Z,9.711843
2022-09-22T02:07:07.573Z,9.711930
2022-09-22T02:08:08.194Z,9.711805
2022-09-22T02:09:07.681Z,9.711766
2022-09-22T02:10:07.562Z,9.711785
2022-09-22T02:11:07.546Z,9.711668
2022-09-22T02:12:07.525Z,9.711763
2022-09-22T02:13:07.532Z,9.711567
2022-09-22T02:14:07.516Z,9.711685
2022-09-22T02:15:07.496Z,9.711645
2022-09-22T02:16:07.553Z,9.711747
2022-09-22T02:17:07.519Z,9.711847
2022-09-22T02:18:07.484Z,9.711806
2022-09-22T02:19:12.953Z,9.711762
2022-09-22T02:20:09.466Z,9.711580
2022-09-22T02:21:07.462Z,9.711956
2022-09-22T02:22:07.454Z,9.712251
2022-09-22T02:23:07.442Z,9.712239
2022-09-22T02:24:07.586Z,9.711885
2022-09-22T02:25:07.443Z,9.711739
2022-09-22T02:26:07.412Z,9.711701
2022-09-22T02:27:07.409Z,9.711761
2022-09-22T02:28:07.407Z,9.711799
2022-09-22T02:29:07.413Z,9.711794
2022-09-22T02:30:07.397Z,9.711926
2022-09-22T02:31:21.752Z,9.711575
2022-09-22T02:32:09.437Z,9.711580
2022-09-22T02:33:07.360Z,9.711606
2022-09-22T02:34:07.356Z,9.711730
2022-09-22T02:35:07.357Z,9.711900
2022-09-22T02:36:07.337Z,9.711927
2022-09-22T02:37:07.340Z,9.711946
2022-09-22T02:38:07.326Z,9.711882
2022-09-22T02:39:07.760Z,9.711778
2022-09-22T02:40:07.357Z,9.711728
2022-09-22T02:41:07.305Z,9.711735
2022-09-22T02:42:07.307Z,9.711840
2022-09-22T02:43:07.296Z,9.712123
2022-09-22T02:44:07.283Z,9.712075
2022-09-22T02:45:07.707Z,9.712020
2022-09-22T02:46:07.316Z,9.711971
2022-09-22T02:47:07.303Z,9.712265
2022-09-22T02:48:07.301Z,9.712485
2022-09-22T02:49:08.201Z,9.712370
2022-09-22T02:50:07.246Z,9.712131
2022-09-22T02:51:07.214Z,9.712385
2022-09-22T02:52:07.209Z,9.711969
2022-09-22T02:53:07.201Z,9.711705
2022-09-22T02:54:07.257Z,9.711613
2022-09-22T02:55:07.200Z,9.711508
2022-09-22T02:56:07.176Z,9.711460
2022-09-22T02:57:07.176Z,9.711280
2022-09-22T02:58:07.162Z,9.711419
2022-09-22T02:59:07.150Z,9.711385
2022-09-22T03:00:07.151Z,9.711397
2022-09-22T03:01:07.175Z,9.711495
2022-09-22T03:02:07.130Z,9.711464
2022-09-22T03:03:07.123Z,9.711419
2022-09-22T03:04:07.112Z,9.711595
2022-09-22T03:05:07.161Z,9.711672
2022-09-22T03:06:07.092Z,9.711673
2022-09-22T03:07:07.098Z,9.711597
2022-09-22T03:08:07.074Z,9.711860
2022-09-22T03:09:07.240Z,9.711811
2022-09-22T03:10:07.065Z,9.711514
2022-09-22T03:11:07.050Z,9.711586
2022-09-22T03:12:07.050Z,9.711391
2022-09-22T03:13:16.396Z,9.711535
2022-09-22T03:14:09.063Z,9.711468
2022-09-22T03:15:07.031Z,9.711490
2022-09-22T03:16:07.067Z,9.711453
2022-09-22T03:17:07.006Z,9.711457
2022-09-22T03:18:06.992Z,9.711532
2022-09-22T03:19:06.987Z,9.711538
2022-09-22T03:20:06.992Z,9.711590
2022-09-22T03:21:06.981Z,9.711523
2022-09-22T03:22:06.972Z,9.711533
2022-09-22T03:23:06.971Z,9.711647
2022-09-22T03:24:07.075Z,9.711578
2022-09-22T03:25:06.951Z,9.711647
2022-09-22T03:26:07.699Z,9.711645
2022-09-22T03:27:06.936Z,9.711674
2022-09-22T03:28:06.929Z,9.711673
2022-09-22T03:29:06.916Z,9.711657
2022-09-22T03:30:06.902Z,9.711766
2022-09-22T03:31:06.983Z,9.711651
2022-09-22T03:32:06.895Z,9.711414
2022-09-22T03:33:07.711Z,9.711539
2022-09-22T03:34:06.876Z,9.711686
2022-09-22T03:35:06.873Z,9.711548
2022-09-22T03:36:06.856Z,9.711579
2022-09-22T03:37:07.109Z,9.711571
2022-09-22T03:50:55.722Z,9.711733
2022-09-22T03:51:55.723Z,9.711667
2022-09-22T03:52:55.705Z,9.711650
2022-09-22T03:53:55.701Z,9.711621
2022-09-22T03:54:55.697Z,9.711638
2022-09-22T03:55:55.680Z,9.711620
2022-09-22T03:56:55.713Z,9.711576
2022-09-22T03:57:55.651Z,9.711671
2022-09-22T03:58:56.659Z,9.711673
2022-09-22T03:59:55.636Z,9.711673
2022-09-22T04:00:56.707Z,9.711666
2022-09-22T04:01:58.359Z,9.711576
2022-09-22T04:02:56.618Z,9.711622
2022-09-22T04:03:55.674Z,9.711741
2022-09-22T04:04:55.605Z,9.711662
2022-09-22T04:05:55.624Z,9.711669
2022-09-22T04:06:55.590Z,9.711626
2022-09-22T04:07:55.592Z,9.711646
2022-09-22T04:08:55.581Z,9.711660
2022-09-22T04:09:55.567Z,9.711610
2022-09-22T04:10:55.564Z,9.711603
2022-09-22T04:11:55.552Z,9.711660
2022-09-22T04:12:55.544Z,9.711698
2022-09-22T04:13:55.545Z,9.711738
2022-09-22T04:14:55.526Z,9.711717
2022-09-22T04:15:55.519Z,9.711678
2022-09-22T04:16:55.574Z,9.711601
2022-09-22T04:17:55.505Z,9.711642
2022-09-22T04:18:55.502Z,9.711653
2022-09-22T04:19:55.494Z,9.711595
2022-09-22T04:20:55.482Z,9.711569
2022-09-22T04:21:57.360Z,9.711624
2022-09-22T04:22:56.494Z,9.711623
2022-09-22T04:23:55.482Z,9.711579
2022-09-22T04:24:55.523Z,9.711580
2022-09-22T04:25:55.449Z,9.711609
2022-09-22T04:27:19.127Z,9.711626
2022-09-22T04:27:57.424Z,9.711601
2022-09-22T04:28:55.439Z,9.711634
2022-09-22T04:29:55.435Z,9.711673
2022-09-22T04:30:55.463Z,9.711598
2022-09-22T04:31:55.397Z,9.711663
2022-09-22T04:32:55.383Z,9.711637
2022-09-22T04:33:55.388Z,9.711637
2022-09-22T04:34:55.384Z,9.711657
2022-09-22T04:35:55.359Z,9.711706
2022-09-22T04:36:55.360Z,9.711613
2022-09-22T04:37:55.359Z,9.711711
2022-09-22T04:38:55.341Z,9.711777
2022-09-22T04:39:55.348Z,9.711725
2022-09-22T04:40:55.337Z,9.711509
2022-09-22T04:41:55.326Z,9.711479
2022-09-22T04:42:55.313Z,9.711445
2022-09-22T04:43:55.310Z,9.711515
2022-09-22T04:44:55.306Z,9.711485
2022-09-22T04:45:55.371Z,9.711512
2022-09-22T04:46:55.282Z,9.711622
2022-09-22T04:47:55.271Z,9.711564
2022-09-22T04:48:55.259Z,9.711647
2022-09-22T04:49:55.259Z,9.711595
2022-09-22T04:50:55.269Z,9.711525
2022-09-22T04:51:55.241Z,9.711635
2022-09-22T04:52:55.240Z,9.711653
2022-09-22T04:53:55.227Z,9.711488
2022-09-22T04:54:55.249Z,9.711611
2022-09-22T04:55:55.215Z,9.711665
2022-09-22T04:56:55.205Z,9.711632
2022-09-22T04:57:55.197Z,9.711523
2022-09-22T04:58:55.187Z,9.711445
2022-09-22T04:59:55.165Z,9.711494
2022-09-22T05:00:55.212Z,9.711644
2022-09-22T05:01:55.152Z,9.711618
2022-09-22T05:02:55.199Z,9.711617
2022-09-22T05:03:55.134Z,9.711441
2022-09-22T05:04:55.126Z,9.711578
2022-09-22T05:05:55.132Z,9.711473
2022-09-22T05:06:55.134Z,9.711536
2022-09-22T05:07:56.096Z,9.711469
2022-09-22T05:08:55.096Z,9.711657
2022-09-22T05:09:55.089Z,9.711550
2022-09-22T05:10:55.086Z,9.711418
2022-09-22T05:11:55.070Z,9.711389
2022-09-22T05:12:55.070Z,9.711413
2022-09-22T05:13:55.062Z,9.711448
2022-09-22T05:14:55.059Z,9.711590
2022-09-22T05:15:55.046Z,9.711741
2022-09-22T05:16:55.092Z,9.711686
2022-09-22T05:17:55.035Z,9.711733
2022-09-22T05:18:55.014Z,9.711554
2022-09-22T05:19:55.020Z,9.711470
2022-09-22T05:20:55.100Z,9.711487
2022-09-22T05:21:55.032Z,9.711517
2022-09-22T05:22:54.986Z,9.711574
2022-09-22T05:23:54.983Z,9.711626
2022-09-22T05:24:54.968Z,9.711652
2022-09-22T05:25:54.957Z,9.711651
2022-09-22T05:26:54.983Z,9.711683
2022-09-22T05:27:54.929Z,9.711665
2022-09-22T05:28:55.958Z,9.711684
2022-09-22T05:29:54.927Z,9.711659
2022-09-22T05:30:54.928Z,9.711644
2022-09-22T05:31:54.976Z,9.711667
2022-09-22T05:32:54.899Z,9.711666
2022-09-22T05:33:54.898Z,9.711635
2022-09-22T05:34:54.900Z,9.711633
2022-09-22T05:35:54.899Z,9.711626
2022-09-22T05:36:54.870Z,9.711646
2022-09-22T05:37:54.874Z,9.711625
2022-09-22T05:38:54.862Z,9.711648
2022-09-22T05:39:54.851Z,9.711660
2022-09-22T05:40:54.850Z,9.711674
2022-09-22T05:41:54.841Z,9.711670
2022-09-22T05:42:54.831Z,9.711639
2022-09-22T05:43:54.826Z,9.711653
2022-09-22T05:44:54.823Z,9.711709
2022-09-22T05:45:54.847Z,9.711703
2022-09-22T05:46:54.828Z,9.711714
2022-09-22T05:47:54.805Z,9.711715
2022-09-22T05:48:54.778Z,9.711666
2022-09-22T05:49:54.811Z,9.711813
2022-09-22T05:50:54.761Z,9.711922
2022-09-22T05:51:54.764Z,9.711797
2022-09-22T05:52:54.750Z,9.711813
2022-09-22T05:53:54.761Z,9.711928
2022-09-22T05:54:54.732Z,9.711802
2022-09-22T05:55:54.722Z,9.711882
2022-09-22T05:56:54.717Z,9.711972
2022-09-22T05:57:54.725Z,9.711959
2022-09-22T05:58:54.713Z,9.712077
2022-09-22T05:59:54.771Z,9.711987
2022-09-22T06:00:54.757Z,9.711992
2022-09-22T06:01:59.359Z,9.712017
2022-09-22T06:02:56.737Z,9.712075
2022-09-22T06:03:54.671Z,9.712093
2022-09-22T06:04:54.645Z,9.711950
2022-09-22T06:05:54.657Z,9.712203
2022-09-22T06:06:54.649Z,9.712168
2022-09-22T06:07:54.628Z,9.712192
2022-09-22T06:08:54.743Z,9.712288
2022-09-22T06:09:54.708Z,9.712124
2022-09-22T06:10:54.626Z,9.712099
2022-09-22T06:12:28.130Z,9.712100
2022-09-22T06:12:54.585Z,9.712026
2022-09-22T06:13:54.591Z,9.711945
2022-09-22T06:14:54.566Z,9.711905
2022-09-22T06:15:54.556Z,9.711907
2022-09-22T06:16:55.561Z,9.711720
2022-09-22T06:17:54.541Z,9.711643
2022-09-22T06:18:54.539Z,9.711658
2022-09-22T06:19:54.529Z,9.711602
2022-09-22T06:20:54.524Z,9.711637
2022-09-22T06:21:55.221Z,9.711623
2022-09-22T06:22:55.139Z,9.711638
2022-09-22T06:23:54.500Z,9.711641
2022-09-22T06:24:54.512Z,9.711696
2022-09-22T06:25:54.498Z,9.711674
2022-09-22T06:26:54.747Z,9.711660
2022-09-22T06:27:54.476Z,9.711676
2022-09-22T06:28:54.525Z,9.711690
2022-09-22T06:29:54.459Z,9.711673
2022-09-22T06:30:54.447Z,9.711694
2022-09-22T06:31:54.480Z,9.711665
2022-09-22T06:32:55.436Z,9.711679
2022-09-22T06:33:54.428Z,9.711674
2022-09-22T06:34:54.418Z,9.711707
2022-09-22T06:35:54.411Z,9.711724
2022-09-22T06:36:54.420Z,9.711708
2022-09-22T06:37:54.389Z,9.711661
2022-09-22T06:38:54.397Z,9.711681
2022-09-22T06:39:54.375Z,9.711661
2022-09-22T06:40:54.441Z,9.711694
2022-09-22T06:41:54.365Z,9.711699
2022-09-22T06:42:54.371Z,9.711627
2022-09-22T06:43:54.353Z,9.711670
2022-09-22T06:44:54.355Z,9.711679
2022-09-22T06:45:54.392Z,9.711700
2022-09-22T06:46:54.315Z,9.711719
2022-09-22T06:47:55.133Z,9.711738
2022-09-22T06:48:54.298Z,9.711686
2022-09-22T06:49:54.290Z,9.711725
2022-09-22T06:50:54.304Z,9.711514
2022-09-22T06:51:54.278Z,9.711550
2022-09-22T06:52:54.263Z,9.711631
2022-09-22T06:53:54.258Z,9.711699
2022-09-22T06:54:54.256Z,9.711707
2022-09-22T06:55:54.572Z,9.711670
2022-09-22T06:56:54.241Z,9.711698
2022-09-22T06:57:54.224Z,9.711703
2022-09-22T06:59:09.406Z,9.711703
2022-09-22T06:59:56.210Z,9.711729
2022-09-22T07:00:54.447Z,9.711716
2022-09-22T07:01:54.322Z,9.711715
2022-09-22T07:02:54.193Z,9.711738
2022-09-22T07:03:54.175Z,9.711715
2022-09-22T07:04:54.166Z,9.711729
2022-09-22T07:05:54.160Z,9.711717
2022-09-22T07:06:54.152Z,9.711689
2022-09-22T07:07:54.153Z,9.711654
2022-09-22T07:08:54.135Z,9.711766
2022-09-22T07:09:54.141Z,9.711707
2022-09-22T07:10:54.117Z,9.711656
2022-09-22T07:11:54.109Z,9.711584
2022-09-22T07:12:54.111Z,9.711657
2022-09-22T07:13:54.097Z,9.711688
2022-09-22T07:14:54.077Z,9.711674
2022-09-22T07:15:54.121Z,9.711687
2022-09-22T07:16:54.063Z,9.711682
2022-09-22T07:17:54.063Z,9.711665
2022-09-22T07:18:54.057Z,9.711694
2022-09-22T07:19:54.079Z,9.711672
2022-09-22T07:20:54.046Z,9.711668
2022-09-22T07:21:54.037Z,9.711656
2022-09-22T07:22:54.030Z,9.711616
2022-09-22T07:23:54.012Z,9.711653
2022-09-22T07:24:53.995Z,9.711656
2022-09-22T07:25:53.985Z,9.711701
2022-09-22T07:26:53.986Z,9.711673
2022-09-22T07:27:53.972Z,9.711719
2022-09-22T07:28:53.974Z,9.711709
2022-09-22T07:29:53.962Z,9.711637
2022-09-22T07:30:53.963Z,9.711670
2022-09-22T07:31:54.018Z,9.711662
2022-09-22T07:32:53.929Z,9.711656
2022-09-22T07:33:54.644Z,9.711658
2022-09-22T07:34:53.913Z,9.711648
2022-09-22T07:35:53.935Z,9.711689
2022-09-22T07:36:53.903Z,9.711738
2022-09-22T07:37:53.884Z,9.711757
2022-09-22T07:38:53.877Z,9.711677
2022-09-22T07:39:53.882Z,9.711662
2022-09-22T07:40:53.863Z,9.711685
2022-09-22T07:41:53.861Z,9.711665
2022-09-22T07:42:53.846Z,9.711775
2022-09-22T07:43:53.837Z,9.711688
2022-09-22T07:44:53.839Z,9.711564
2022-09-22T07:45:53.830Z,9.711684
2022-09-22T07:46:53.873Z,9.711714
2022-09-22T07:47:53.817Z,9.711680
2022-09-22T07:48:53.798Z,9.711652
2022-09-22T07:49:53.798Z,9.711633
2022-09-22T07:50:53.787Z,9.711674
2022-09-22T07:51:53.786Z,9.711691
2022-09-22T07:52:53.773Z,9.711679
2022-09-22T07:53:53.764Z,9.711708
2022-09-22T07:54:53.759Z,9.711659
2022-09-22T07:55:53.799Z,9.711800
2022-09-22T07:56:53.737Z,9.711675
2022-09-22T07:57:53.732Z,9.711626
2022-09-22T07:58:53.726Z,9.711655
2022-09-22T07:59:53.703Z,9.711520
2022-09-22T08:00:54.744Z,9.711514
2022-09-22T08:01:53.776Z,9.711570
2022-09-22T08:02:53.703Z,9.711637
2022-09-22T08:03:53.676Z,9.711570
2022-09-22T08:04:53.673Z,9.711689
2022-09-22T08:05:54.796Z,9.711729
2022-09-22T08:06:53.652Z,9.711554
2022-09-22T08:07:53.653Z,9.711709
2022-09-22T08:08:53.656Z,9.711726
2022-09-22T08:09:53.667Z,9.711647
2022-09-22T08:10:53.624Z,9.711724
2022-09-22T08:11:53.716Z,9.711808
2022-09-22T08:12:53.609Z,9.711876
2022-09-22T08:13:53.600Z,9.712000
2022-09-22T08:14:53.597Z,9.711752
2022-09-22T08:15:53.627Z,9.711756
2022-09-22T08:16:54.011Z,9.711756
2022-09-22T08:17:53.569Z,9.711671
2022-09-22T08:18:53.563Z,9.711713
2022-09-22T08:19:53.568Z,9.711645
2022-09-22T08:20:53.543Z,9.711723
2022-09-22T08:21:53.571Z,9.711636
2022-09-22T08:22:53.534Z,9.711558
2022-09-22T08:23:53.521Z,9.711935
2022-09-22T08:24:53.516Z,9.711863
2022-09-22T08:25:53.506Z,9.711640
2022-09-22T08:26:53.495Z,9.711617
2022-09-22T08:27:53.482Z,9.712115
2022-09-22T08:28:53.686Z,9.711909
2022-09-22T08:29:53.474Z,9.711470
2022-09-22T08:30:54.235Z,9.711617
2022-09-22T08:31:53.501Z,9.711646
2022-09-22T08:32:53.442Z,9.711787
2022-09-22T08:33:53.444Z,9.711609
2022-09-22T08:34:53.430Z,9.711577
2022-09-22T08:35:53.425Z,9.711568
2022-09-22T08:36:54.164Z,9.711507
2022-09-22T08:37:53.431Z,9.711535
2022-09-22T08:38:53.397Z,9.711610
2022-09-22T08:39:54.240Z,9.711779
2022-09-22T08:40:53.414Z,9.711819
2022-09-22T08:41:53.370Z,9.711805
2022-09-22T08:42:54.435Z,9.712100
2022-09-22T08:43:53.357Z,9.711957
2022-09-22T08:44:53.354Z,9.711768
2022-09-22T08:45:53.362Z,9.711793
2022-09-22T08:46:53.405Z,9.711713
2022-09-22T08:47:53.325Z,9.711674
2022-09-22T08:48:53.331Z,9.711737
2022-09-22T08:49:53.312Z,9.711742
2022-09-22T08:50:53.305Z,9.711700
2022-09-22T08:51:53.289Z,9.711710
2022-09-22T08:52:53.285Z,9.711751
2022-09-22T08:53:53.273Z,9.711695
2022-09-22T08:54:53.267Z,9.711741
2022-09-22T08:59:00.624Z,9.711647
2022-09-22T09:00:00.645Z,9.711761
2022-09-22T09:01:00.621Z,9.711588
2022-09-22T09:02:00.670Z,9.711568
2022-09-22T09:03:00.624Z,9.711594
2022-09-22T09:04:00.669Z,9.711596
2022-09-22T09:05:00.661Z,9.711666
2022-09-22T09:06:00.563Z,9.711670
2022-09-22T09:07:00.622Z,9.711745
2022-09-22T09:08:00.577Z,9.711711
2022-09-22T09:09:04.786Z,9.711720
2022-09-22T09:10:01.605Z,9.711710
2022-09-22T09:11:00.519Z,9.711688
2022-09-22T09:12:00.527Z,9.711712
2022-09-22T09:13:00.547Z,9.711758
2022-09-22T09:14:00.602Z,9.711749
2022-09-22T09:15:00.488Z,9.711767
2022-09-22T09:16:00.563Z,9.711804
2022-09-22T09:17:00.477Z,9.711712
2022-09-22T09:18:00.472Z,9.711699
2022-09-22T09:19:00.467Z,9.711688
2022-09-22T09:20:00.453Z,9.711724
2022-09-22T09:21:00.447Z,9.711674
2022-09-22T09:22:00.455Z,9.711701
2022-09-22T09:23:00.479Z,9.711879
2022-09-22T09:26:02.408Z,9.711721
2022-09-22T09:27:00.393Z,9.711642
2022-09-22T09:28:00.422Z,9.711756
2022-09-22T09:29:05.891Z,9.711823
2022-09-22T09:30:02.386Z,9.711813
2022-09-22T09:31:00.393Z,9.711734
2022-09-22T09:32:00.918Z,9.711707
2022-09-22T09:33:00.354Z,9.711685
2022-09-22T09:34:00.346Z,9.711776
2022-09-22T09:35:00.418Z,9.711725
2022-09-22T09:36:00.917Z,9.711787
2022-09-22T09:37:00.330Z,9.711754
2022-09-22T09:38:00.309Z,9.711794
2022-09-22T09:39:00.348Z,9.711852
2022-09-22T09:40:00.298Z,9.711834
2022-09-22T09:41:00.312Z,9.711710
2022-09-22T09:42:00.273Z,9.711787
2022-09-22T09:43:01.666Z,9.711902
2022-09-22T09:44:00.270Z,9.711791
2022-09-22T09:45:00.260Z,9.711815
2022-09-22T09:46:00.337Z,9.711817
2022-09-22T09:47:00.232Z,9.712001
2022-09-22T09:48:00.237Z,9.711974
2022-09-22T09:49:00.246Z,9.711824
2022-09-22T09:50:00.250Z,9.711797
2022-09-22T09:51:00.226Z,9.711806
2022-09-22T09:52:00.196Z,9.711901
2022-09-22T09:53:00.202Z,9.712021
2022-09-22T09:54:00.181Z,9.712256
2022-09-22T09:55:00.207Z,9.712101
2022-09-22T09:56:00.182Z,9.712132
2022-09-22T09:57:00.162Z,9.712725
2022-09-22T09:58:00.146Z,9.712624
2022-09-22T09:59:00.266Z,9.712212
2022-09-22T10:00:00.627Z,9.711756
2022-09-22T10:01:00.123Z,9.711865
2022-09-22T10:02:00.226Z,9.712021
2022-09-22T10:03:02.997Z,9.712153
2022-09-22T10:04:00.219Z,9.712239
2022-09-22T10:05:00.093Z,9.712547
2022-09-22T10:06:00.079Z,9.712585
2022-09-22T10:07:01.551Z,9.712254
2022-09-22T10:08:01.154Z,9.712244
2022-09-22T10:09:00.114Z,9.712025
2022-09-22T10:10:00.191Z,9.711857
2022-09-22T10:11:00.064Z,9.711561
2022-09-22T10:12:00.038Z,9.711433
2022-09-22T10:13:00.064Z,9.711519
2022-09-22T10:14:00.015Z,9.711508
2022-09-22T10:15:00.018Z,9.711505
2022-09-22T10:16:00.028Z,9.711540
2022-09-22T10:17:00.009Z,9.711347
2022-09-22T10:18:00.004Z,9.711345
2022-09-22T10:18:59.976Z,9.711320
2022-09-22T10:19:59.973Z,9.711647
2022-09-22T10:20:59.966Z,9.711485
2022-09-22T10:21:59.971Z,9.711322
2022-09-22T10:22:59.964Z,9.711344
2022-09-22T10:23:59.970Z,9.711388
2022-09-22T10:24:59.930Z,9.711381
2022-09-22T10:25:59.919Z,9.711404
2022-09-22T10:27:02.535Z,9.711350
2022-09-22T10:28:00.909Z,9.711329
2022-09-22T10:28:59.890Z,9.711420
2022-09-22T10:29:59.886Z,9.711437
2022-09-22T10:30:59.933Z,9.711370
2022-09-22T10:31:59.900Z,9.711377
2022-09-22T10:32:59.860Z,9.711422
2022-09-22T10:33:59.853Z,9.711440
2022-09-22T10:34:59.855Z,9.711416
2022-09-22T10:35:59.837Z,9.711405
2022-09-22T10:36:59.867Z,9.711426
2022-09-22T10:37:59.827Z,9.711477
2022-09-22T10:39:00.213Z,9.711444
2022-09-22T10:39:59.803Z,9.711466
2022-09-22T10:40:59.793Z,9.711393
2022-09-22T10:41:59.792Z,9.711344
2022-09-22T10:42:59.774Z,9.711362
2022-09-22T10:44:03.115Z,9.711482
2022-09-22T10:45:01.763Z,9.711422
2022-09-22T10:45:59.764Z,9.711640
2022-09-22T10:46:59.748Z,9.711695
2022-09-22T10:47:59.748Z,9.711615
2022-09-22T10:49:00.553Z,9.711773
2022-09-22T10:49:59.724Z,9.711721
2022-09-22T10:50:59.707Z,9.711715
2022-09-22T10:51:59.706Z,9.711649
2022-09-22T10:52:59.727Z,9.711577
2022-09-22T10:53:59.707Z,9.711566
2022-09-22T10:54:59.700Z,9.711703
2022-09-22T10:55:59.668Z,9.711862
2022-09-22T10:56:59.671Z,9.711993
2022-09-22T10:57:59.666Z,9.712024
2022-09-22T10:58:59.672Z,9.711903
2022-09-22T10:59:59.640Z,9.711806
2022-09-22T11:01:01.059Z,9.711413
2022-09-22T11:01:59.884Z,9.710847
2022-09-22T11:02:59.644Z,9.710933
2022-09-22T11:03:59.865Z,9.710973
2022-09-22T11:04:59.660Z,9.711667
2022-09-22T11:05:59.617Z,9.711736
2022-09-22T11:06:59.572Z,9.711890
2022-09-22T11:07:59.581Z,9.711718
2022-09-22T11:08:59.607Z,9.711746
2022-09-22T11:09:59.552Z,9.711757
2022-09-22T11:10:59.563Z,9.711797
2022-09-22T11:11:59.540Z,9.711686
2022-09-22T11:12:59.527Z,9.711820
2022-09-22T11:13:59.670Z,9.711754
2022-09-22T11:14:59.533Z,9.711670
2022-09-22T11:15:59.548Z,9.711727
2022-09-22T11:16:59.521Z,9.711875
2022-09-22T11:17:59.492Z,9.711927
2022-09-22T11:18:59.485Z,9.711906
2022-09-22T11:19:59.491Z,9.711898
2022-09-22T11:20:59.482Z,9.712077
2022-09-22T11:21:59.470Z,9.712019
2022-09-22T11:22:59.453Z,9.711937
2022-09-22T11:23:59.438Z,9.712035
2022-09-22T11:24:59.439Z,9.712099
2022-09-22T11:25:59.478Z,9.711865
2022-09-22T11:26:59.428Z,9.711733
2022-09-22T11:27:59.419Z,9.711720
2022-09-22T11:28:59.402Z,9.711772
2022-09-22T11:29:59.413Z,9.711750
2022-09-22T11:30:59.482Z,9.711709
2022-09-22T11:31:59.406Z,9.711702
2022-09-22T11:32:59.426Z,9.711574
2022-09-22T11:33:59.361Z,9.711663
2022-09-22T11:34:59.363Z,9.711651
2022-09-22T11:35:59.348Z,9.711742
2022-09-22T11:36:59.341Z,9.711576
2022-09-22T11:37:59.339Z,9.711582
2022-09-22T11:38:59.328Z,9.711598
2022-09-22T11:39:59.307Z,9.711535
2022-09-22T11:41:00.432Z,9.711518
2022-09-22T11:41:59.295Z,9.711589
2022-09-22T11:43:02.143Z,9.711596
2022-09-22T11:44:00.361Z,9.711623
2022-09-22T11:44:59.274Z,9.711530
2022-09-22T11:45:59.288Z,9.711595
2022-09-22T11:47:00.254Z,9.711568
2022-09-22T11:47:59.248Z,9.711589
2022-09-22T11:48:59.232Z,9.711671
2022-09-22T11:49:59.235Z,9.711834
2022-09-22T11:50:59.213Z,9.711869
2022-09-22T11:51:59.213Z,9.711834
2022-09-22T11:52:59.198Z,9.711862
2022-09-22T11:53:59.286Z,9.711731
2022-09-22T11:55:01.114Z,9.711760
2022-09-22T11:56:00.180Z,9.711724
2022-09-22T11:56:59.162Z,9.711670
2022-09-22T11:57:59.164Z,9.711553
2022-09-22T11:58:59.170Z,9.711600
2022-09-22T11:59:59.141Z,9.711496
2022-09-22T12:00:59.149Z,9.711632
2022-09-22T12:01:59.177Z,9.711585
2022-09-22T12:03:02.033Z,9.711602
2022-09-22T12:04:00.124Z,9.711538
2022-09-22T12:04:59.106Z,9.711696